createdAt,value
2018-04-24T00:01:12.509Z,5.07
2018-04-24T00:03:46.112Z,5.30
2018-04-24T00:06:15.469Z,5.60
2018-04-24T00:08:47.932Z,5.33
2018-04-24T00:11:16.713Z,8.20
2018-04-24T00:13:50.402Z,2.70
2018-04-24T00:16:18.957Z,5.57
2018-04-24T00:18:53.396Z,6.10
2018-04-24T00:21:21.902Z,5.83
2018-04-24T00:23:56.268Z,7.43
2018-04-24T00:26:25.037Z,6.20
2018-04-24T00:29:07.019Z,5.63
2018-04-24T00:31:35.777Z,6.33
2018-04-24T00:34:04.305Z,8.00
2018-04-24T00:36:34.090Z,4.77
2018-04-24T00:39:06.000Z,7.60
2018-04-24T00:41:34.485Z,8.23
2018-04-24T00:44:07.352Z,5.63
2018-04-24T00:46:36.544Z,6.37
2018-04-24T00:49:09.616Z,5.13
2018-04-24T00:51:38.878Z,4.73
2018-04-24T00:54:13.329Z,8.77
2018-04-24T00:56:41.813Z,5.90
2018-04-24T00:59:23.084Z,6.93
2018-04-24T01:01:52.077Z,8.00
2018-04-24T01:04:20.604Z,10.60
2018-04-24T01:06:49.232Z,7.63
2018-04-24T01:09:19.194Z,6.03
2018-04-24T01:11:48.836Z,4.93
2018-04-24T01:14:22.119Z,7.07
2018-04-24T01:16:52.350Z,8.47
2018-04-24T01:19:24.565Z,5.77
2018-04-24T01:21:54.194Z,7.47
2018-04-24T01:24:25.000Z,6.17
2018-04-24T01:26:54.517Z,5.87
2018-04-24T01:29:36.810Z,5.80
2018-04-24T01:32:05.625Z,6.80
2018-04-24T01:34:34.548Z,10.37
2018-04-24T01:37:04.124Z,7.20
2018-04-24T01:39:34.497Z,7.23
2018-04-24T01:42:04.199Z,7.33
2018-04-24T01:44:36.166Z,9.60
2018-04-24T01:47:04.989Z,7.50
2018-04-24T01:49:37.735Z,5.13
2018-04-24T01:52:06.237Z,6.47
2018-04-24T01:54:39.273Z,7.80
2018-04-24T01:57:07.807Z,8.43
2018-04-24T01:59:40.216Z,8.97
2018-04-24T02:02:09.532Z,6.43
2018-04-24T02:04:42.455Z,8.10
2018-04-24T02:07:11.746Z,10.67
2018-04-24T02:09:45.621Z,7.07
2018-04-24T02:12:14.585Z,12.43
2018-04-24T02:14:48.150Z,6.97
2018-04-24T02:17:16.623Z,7.43
2018-04-24T02:19:50.882Z,8.93
2018-04-24T02:22:20.907Z,6.50
2018-04-24T02:24:53.813Z,9.73
2018-04-24T02:27:23.648Z,10.03
2018-04-24T02:30:06.425Z,8.10
2018-04-24T02:32:36.257Z,7.93
2018-04-24T02:35:06.330Z,10.30
2018-04-24T02:37:36.089Z,5.77
2018-04-24T02:40:04.961Z,7.60
2018-04-24T02:42:33.877Z,8.13
2018-04-24T02:45:03.472Z,5.57
2018-04-24T02:47:32.268Z,9.53
2018-04-24T02:50:05.037Z,5.27
2018-04-24T02:52:34.388Z,6.57
2018-04-24T02:57:36.683Z,7.00
2018-04-24T03:02:47.858Z,9.83
2018-04-24T03:05:17.672Z,6.07
2018-04-24T03:07:46.645Z,7.93
2018-04-24T03:10:17.355Z,9.20
2018-04-24T03:12:46.626Z,5.40
2018-04-24T03:15:19.837Z,6.47
2018-04-24T03:17:48.631Z,12.17
2018-04-24T03:20:21.940Z,5.50
2018-04-24T03:22:51.856Z,7.93
2018-04-24T03:25:23.861Z,4.40
2018-04-24T03:27:52.357Z,7.33
2018-04-24T03:30:25.210Z,6.17
2018-04-24T03:32:54.162Z,5.67
2018-04-24T03:35:29.642Z,4.20
2018-04-24T03:37:58.145Z,4.73
2018-04-24T03:40:29.726Z,6.67
2018-04-24T03:42:58.648Z,5.70
2018-04-24T03:45:33.225Z,7.07
2018-04-24T03:48:02.864Z,4.93
2018-04-24T03:50:37.519Z,5.17
2018-04-24T03:53:08.231Z,4.03
2018-04-24T03:55:37.294Z,5.73
2018-04-24T03:58:06.239Z,4.30
2018-04-24T04:00:38.671Z,4.93
2018-04-24T04:03:07.610Z,6.00
2018-04-24T04:05:42.897Z,4.80
2018-04-24T04:08:11.854Z,5.20
2018-04-24T04:10:43.608Z,3.90
2018-04-24T04:13:13.184Z,3.67
2018-04-24T04:15:45.816Z,5.70
2018-04-24T04:22:32.981Z,4.40
2018-04-24T04:25:01.447Z,4.87
2018-04-24T04:27:31.442Z,3.03
2018-04-24T04:30:00.967Z,4.87
2018-04-24T04:32:29.513Z,3.73
2018-04-24T04:34:58.052Z,7.30
2018-04-24T04:37:26.598Z,4.20
2018-04-24T04:39:58.167Z,3.10
2018-04-24T04:42:28.196Z,3.93
2018-04-24T04:45:00.104Z,8.50
2018-04-24T04:47:29.891Z,4.53
2018-04-24T04:50:11.160Z,3.10
2018-04-24T04:52:39.944Z,3.70
2018-04-24T04:55:08.497Z,6.00
2018-04-24T04:57:37.768Z,3.30
2018-04-24T05:00:09.753Z,4.07
2018-04-24T05:02:38.256Z,4.23
2018-04-24T05:05:12.272Z,5.33
2018-04-24T05:07:41.580Z,3.47
2018-04-24T05:10:15.133Z,3.07
2018-04-24T05:12:44.073Z,3.47
2018-04-24T05:15:16.303Z,3.53
2018-04-24T05:17:45.897Z,5.07
2018-04-24T05:20:17.668Z,4.30
2018-04-24T05:22:46.557Z,4.47
2018-04-24T05:25:20.167Z,4.63
2018-04-24T05:27:51.879Z,4.60
2018-04-24T05:30:23.467Z,3.47
2018-04-24T05:32:53.568Z,7.50
2018-04-24T05:35:26.334Z,5.80
2018-04-24T05:37:54.858Z,2.97
2018-04-24T05:40:28.203Z,3.53
2018-04-24T05:42:56.691Z,2.97
2018-04-24T05:45:38.357Z,6.00
2018-04-24T05:48:07.917Z,6.43
2018-04-24T05:50:37.554Z,4.30
2018-04-24T05:53:07.148Z,3.63
2018-04-24T05:55:37.254Z,6.10
2018-04-24T05:58:06.784Z,7.13
2018-04-24T06:00:37.221Z,4.60
2018-04-24T06:03:07.016Z,4.30
2018-04-24T06:05:39.598Z,7.60
2018-04-24T06:08:08.893Z,3.13
2018-04-24T06:10:41.938Z,4.50
2018-04-24T06:13:10.449Z,4.63
2018-04-24T06:15:52.529Z,7.37
2018-04-24T06:18:22.064Z,8.70
2018-04-24T06:20:52.091Z,5.97
2018-04-24T06:23:20.719Z,8.67
2018-04-24T06:25:50.378Z,4.80
2018-04-24T06:28:19.338Z,5.03
2018-04-24T06:30:52.218Z,6.73
2018-04-24T06:33:22.149Z,5.37
2018-04-24T06:35:55.767Z,3.03
2018-04-24T06:38:24.612Z,5.67
2018-04-24T06:40:57.266Z,5.37
2018-04-24T06:43:25.805Z,5.73
2018-04-24T06:45:59.355Z,4.23
2018-04-24T06:48:28.120Z,6.80
2018-04-24T06:51:02.247Z,4.60
2018-04-24T06:53:31.916Z,4.03
2018-04-24T06:56:13.309Z,3.17
2018-04-24T06:58:42.253Z,6.07
2018-04-24T07:01:15.593Z,7.33
2018-04-24T07:03:44.596Z,6.70
2018-04-24T07:06:14.331Z,4.10
2018-04-24T07:08:44.357Z,2.93
2018-04-24T07:11:13.962Z,5.90
2018-04-24T07:13:42.789Z,6.93
2018-04-24T07:16:16.529Z,3.73
2018-04-24T07:18:45.053Z,6.73
2018-04-24T07:21:17.746Z,5.77
2018-04-24T07:23:47.024Z,3.20
2018-04-24T07:26:28.282Z,3.80
2018-04-24T07:28:57.512Z,3.97
2018-04-24T07:31:27.160Z,5.83
2018-04-24T07:33:56.832Z,4.57
2018-04-24T07:36:26.660Z,4.87
2018-04-24T07:38:55.221Z,2.87
2018-04-24T07:41:25.005Z,3.53
2018-04-24T07:43:54.612Z,4.83
2018-04-24T07:46:27.274Z,5.30
2018-04-24T07:48:55.794Z,4.23
2018-04-24T07:51:29.228Z,5.00
2018-04-24T07:53:57.752Z,4.70
2018-04-24T07:56:31.356Z,4.20
2018-04-24T07:59:00.720Z,5.23
2018-04-24T08:01:42.844Z,4.43
2018-04-24T08:04:12.594Z,5.73
2018-04-24T08:06:42.305Z,4.67
2018-04-24T08:09:11.844Z,4.93
2018-04-24T08:11:41.505Z,5.63
2018-04-24T08:14:17.198Z,5.77
2018-04-24T08:16:47.237Z,5.87
2018-04-24T08:19:16.219Z,5.17
2018-04-24T08:21:45.755Z,4.57
2018-04-24T08:24:14.920Z,7.63
2018-04-24T08:26:46.958Z,7.40
2018-04-24T08:29:15.615Z,3.67
2018-04-24T08:31:57.769Z,4.97
2018-04-24T08:34:27.560Z,4.50
2018-04-24T08:36:57.870Z,4.77
2018-04-24T08:39:27.188Z,4.67
2018-04-24T08:41:57.219Z,7.10
2018-04-24T08:44:26.164Z,5.10
2018-04-24T08:46:56.583Z,5.90
2018-04-24T08:49:25.103Z,6.93
2018-04-24T08:51:58.717Z,4.10
2018-04-24T08:54:27.257Z,3.97
2018-04-24T08:56:59.564Z,6.53
2018-04-24T08:59:28.521Z,5.67
2018-04-24T09:02:02.143Z,6.63
2018-04-24T09:04:30.685Z,4.33
2018-04-24T09:07:00.676Z,11.10
2018-04-24T09:09:33.189Z,7.60
2018-04-24T09:12:02.177Z,6.40
2018-04-24T09:14:32.215Z,9.90
2018-04-24T09:17:00.792Z,7.00
2018-04-24T09:19:29.829Z,6.73
2018-04-24T09:21:59.144Z,4.03
2018-04-24T09:24:28.052Z,7.93
2018-04-24T09:26:57.737Z,5.33
2018-04-24T09:29:27.355Z,7.63
2018-04-24T09:31:55.919Z,6.30
2018-04-24T09:34:25.214Z,6.73
2018-04-24T09:36:54.753Z,4.73
2018-04-24T09:39:23.333Z,5.97
2018-04-24T09:41:52.922Z,6.70
2018-04-24T09:44:25.370Z,7.93
2018-04-24T09:46:53.908Z,7.43
2018-04-24T09:49:27.811Z,6.23
2018-04-24T09:51:57.462Z,10.03
2018-04-24T09:54:28.087Z,7.33
2018-04-24T09:56:58.121Z,7.37
2018-04-24T09:59:31.022Z,6.90
2018-04-24T10:01:59.590Z,7.27
2018-04-24T10:04:33.078Z,6.70
2018-04-24T10:07:02.380Z,11.97
2018-04-24T10:09:34.640Z,7.23
2018-04-24T10:12:03.557Z,4.47
2018-04-24T10:14:36.594Z,7.00
2018-04-24T10:17:05.905Z,6.43
2018-04-24T10:32:45.776Z,5.23
2018-04-24T10:35:15.483Z,5.40
2018-04-24T10:37:47.142Z,4.57
2018-04-24T10:40:16.673Z,5.23
2018-04-24T10:42:49.433Z,3.57
2018-04-24T10:45:18.722Z,4.80
2018-04-24T10:47:52.008Z,5.23
2018-04-24T10:50:21.573Z,4.60
2018-04-24T10:52:54.553Z,4.67
2018-04-24T10:55:23.456Z,3.50
2018-04-24T10:58:05.838Z,4.03
2018-04-24T11:00:34.450Z,3.63
2018-04-24T11:03:04.515Z,5.57
2018-04-24T11:05:34.429Z,5.33
2018-04-24T11:08:04.117Z,5.50
2018-04-24T11:10:34.152Z,5.07
2018-04-24T11:13:05.965Z,5.53
2018-04-24T11:15:34.575Z,4.03
2018-04-24T11:18:07.483Z,5.23
2018-04-24T11:20:36.445Z,6.40
2018-04-24T11:23:10.831Z,7.43
2018-04-24T11:25:39.731Z,5.37
2018-04-24T11:28:12.928Z,4.57
2018-04-24T11:30:42.221Z,4.23
2018-04-24T11:33:24.314Z,7.40
2018-04-24T11:35:58.035Z,7.30
2018-04-24T11:38:27.725Z,4.50
2018-04-24T11:40:57.425Z,4.00
2018-04-24T11:43:26.405Z,3.53
2018-04-24T11:45:55.721Z,2.37
2018-04-24T11:48:25.385Z,2.33
2018-04-24T11:50:55.107Z,3.03
2018-04-24T11:53:24.924Z,2.80
2018-04-24T11:55:54.949Z,3.93
2018-04-24T11:58:27.686Z,8.60
2018-04-24T12:00:57.387Z,4.13
2018-04-24T12:03:29.069Z,3.33
2018-04-24T12:05:59.623Z,3.27
2018-04-24T12:08:31.884Z,4.23
2018-04-24T12:11:01.398Z,3.40
2018-04-24T12:13:32.584Z,3.90
2018-04-24T12:16:01.096Z,2.57
2018-04-24T12:18:35.132Z,3.47
2018-04-24T12:21:04.470Z,3.17
2018-04-24T12:23:47.150Z,3.33
2018-04-24T12:26:16.641Z,2.93
2018-04-24T12:28:45.589Z,1.67
2018-04-24T12:31:14.245Z,3.50
2018-04-24T12:33:43.146Z,3.07
2018-04-24T12:36:12.447Z,2.00
2018-04-24T12:38:53.539Z,3.50
2018-04-24T12:41:22.813Z,4.30
2018-04-24T12:43:52.541Z,3.97
2018-04-24T12:46:21.089Z,3.57
2018-04-24T12:48:50.330Z,7.07
2018-04-24T12:51:19.877Z,4.80
2018-04-24T12:53:52.949Z,3.53
2018-04-24T12:56:22.883Z,5.73
2018-04-24T12:58:55.376Z,2.93
2018-04-24T13:01:25.204Z,4.33
2018-04-24T13:04:00.004Z,3.17
2018-04-24T13:06:29.273Z,2.90
2018-04-24T13:09:01.433Z,6.00
2018-04-24T13:11:29.949Z,4.53
2018-04-24T13:14:02.812Z,3.37
2018-04-24T13:16:32.507Z,3.17
2018-04-24T13:19:14.639Z,5.20
2018-04-24T13:21:44.441Z,4.87
2018-04-24T13:24:12.980Z,5.27
2018-04-24T13:26:41.806Z,4.83
2018-04-24T13:29:12.838Z,6.03
2018-04-24T13:31:42.576Z,3.43
2018-04-24T13:34:15.157Z,3.87
2018-04-24T13:36:44.872Z,5.00
2018-04-24T13:39:16.699Z,4.83
2018-04-24T13:41:45.338Z,3.67
2018-04-24T13:44:26.824Z,5.53
2018-04-24T13:46:56.383Z,10.07
2018-04-24T13:49:25.292Z,4.17
2018-04-24T13:51:53.777Z,3.67
2018-04-24T13:54:23.456Z,3.83
2018-04-24T13:56:52.662Z,3.40
2018-04-24T13:59:25.248Z,3.97
2018-04-24T14:01:54.589Z,4.43
2018-04-24T14:04:27.111Z,5.37
2018-04-24T14:06:55.654Z,3.57
2018-04-24T14:09:29.191Z,4.77
2018-04-24T14:11:58.207Z,4.10
2018-04-24T14:14:31.408Z,3.50
2018-04-24T14:17:01.502Z,4.23
2018-04-24T14:19:34.082Z,4.87
2018-04-24T14:22:06.023Z,5.07
2018-04-24T14:24:35.358Z,4.57
2018-04-24T14:27:05.373Z,5.40
2018-04-24T14:29:37.225Z,5.43
2018-04-24T14:32:06.774Z,6.73
2018-04-24T14:34:39.814Z,6.00
2018-04-24T14:37:09.337Z,7.80
2018-04-24T14:39:42.256Z,8.13
2018-04-24T14:42:10.870Z,5.43
2018-04-24T14:44:42.906Z,9.67
2018-04-24T14:47:12.647Z,6.33
2018-04-24T14:49:45.776Z,6.23
2018-04-24T14:52:14.600Z,6.63
2018-04-24T14:57:17.458Z,5.87
2018-04-24T14:59:51.951Z,7.40
2018-04-24T15:02:21.345Z,7.13
2018-04-24T15:05:03.616Z,8.63
2018-04-24T15:07:32.892Z,6.33
2018-04-24T15:10:02.710Z,9.80
2018-04-24T15:12:31.322Z,8.30
2018-04-24T15:15:01.318Z,5.63
2018-04-24T15:17:30.841Z,5.17
2018-04-24T15:20:12.410Z,4.40
2018-04-24T15:22:41.221Z,6.83
2018-04-24T15:25:10.924Z,9.07
2018-04-24T15:27:39.519Z,7.97
2018-04-24T15:30:09.412Z,5.87
2018-04-24T15:32:37.921Z,8.50
2018-04-24T15:35:20.881Z,7.47
2018-04-24T15:37:50.188Z,6.07
2018-04-24T15:40:18.811Z,7.83
2018-04-24T15:42:47.733Z,8.63
2018-04-24T15:45:16.542Z,9.43
2018-04-24T15:47:45.820Z,7.60
2018-04-24T15:50:26.943Z,7.73
2018-04-24T15:52:56.196Z,6.43
2018-04-24T15:55:25.534Z,5.97
2018-04-24T15:57:54.054Z,7.53
2018-04-24T16:00:23.153Z,7.17
2018-04-24T16:02:52.499Z,7.43
2018-04-24T16:05:25.649Z,8.80
2018-04-24T16:07:54.558Z,7.67
2018-04-24T16:10:28.785Z,7.43
2018-04-24T16:12:58.061Z,7.90
2018-04-24T16:15:31.144Z,7.50
2018-04-24T16:17:59.664Z,7.90
2018-04-24T16:20:41.489Z,7.33
2018-04-24T16:23:11.059Z,7.87
2018-04-24T16:25:39.574Z,7.53
2018-04-24T16:28:08.152Z,8.47
2018-04-24T16:30:38.084Z,7.47
2018-04-24T16:33:07.346Z,9.97
2018-04-24T16:35:48.272Z,10.00
2018-04-24T16:38:17.775Z,9.07
2018-04-24T16:40:46.330Z,8.00
2018-04-24T16:43:14.869Z,10.70
2018-04-24T16:45:44.849Z,10.10
2018-04-24T16:48:13.381Z,12.50
2018-04-24T16:50:54.521Z,10.63
2018-04-24T16:53:24.669Z,14.90
2018-04-24T16:55:55.202Z,10.00
2018-04-24T16:58:23.775Z,11.67
2018-04-24T17:00:53.449Z,9.97
2018-04-24T17:03:23.213Z,14.70
2018-04-24T17:06:04.235Z,12.17
2018-04-24T17:08:33.681Z,9.27
2018-04-24T17:11:02.628Z,11.77
2018-04-24T17:13:31.169Z,10.83
2018-04-24T17:16:00.137Z,14.60
2018-04-24T17:18:29.274Z,13.83
2018-04-24T17:21:03.848Z,12.70
2018-04-24T17:23:33.068Z,12.40
2018-04-24T17:26:05.653Z,14.50
2018-04-24T17:28:35.413Z,10.63
2018-04-24T17:31:08.644Z,10.30
2018-04-24T17:33:37.561Z,11.63
2018-04-24T17:36:10.140Z,13.23
2018-04-24T17:38:40.072Z,11.77
2018-04-24T17:41:21.837Z,12.53
2018-04-24T17:43:51.377Z,18.70
2018-04-24T17:46:20.905Z,15.57
2018-04-24T17:48:50.545Z,13.40
2018-04-24T17:51:20.129Z,13.07
2018-04-24T17:53:48.635Z,11.03
2018-04-24T17:56:19.301Z,17.27
2018-04-24T17:58:48.508Z,16.77
2018-04-24T18:01:30.455Z,13.30
2018-04-24T18:04:00.117Z,13.47
2018-04-24T18:06:28.661Z,27.20
2018-04-24T18:08:57.924Z,12.70
2018-04-24T18:11:27.899Z,10.90
2018-04-24T18:13:57.565Z,13.07
2018-04-24T18:16:27.037Z,15.20
2018-04-24T18:18:56.622Z,14.53
2018-04-24T18:21:37.749Z,15.07
2018-04-24T18:24:06.512Z,15.03
2018-04-24T18:26:36.180Z,11.07
2018-04-24T18:29:05.539Z,17.40
2018-04-24T18:31:35.889Z,15.47
2018-04-24T18:34:05.436Z,14.27
2018-04-24T18:36:35.679Z,11.83
2018-04-24T18:39:06.085Z,13.53
2018-04-24T18:41:39.696Z,11.87
2018-04-24T18:44:08.907Z,11.27
2018-04-24T18:46:39.848Z,14.67
2018-04-24T18:49:09.148Z,18.63
2018-04-24T18:51:45.694Z,11.33
2018-04-24T18:54:15.340Z,15.67
2018-04-24T18:56:45.717Z,11.57
2018-04-24T18:59:15.070Z,13.80
2018-04-24T19:01:56.288Z,17.40
2018-04-24T19:04:25.482Z,14.37
2018-04-24T19:06:55.132Z,14.17
2018-04-24T19:09:24.092Z,15.57
2018-04-24T19:11:52.605Z,12.43
2018-04-24T19:14:24.756Z,15.57
2018-04-24T19:16:55.065Z,17.07
2018-04-24T19:32:31.744Z,17.57
2018-04-24T19:35:04.205Z,17.30
2018-04-24T19:37:32.741Z,16.70
2018-04-24T19:40:11.289Z,16.97
2018-04-24T19:42:40.220Z,13.57
2018-04-24T19:45:10.498Z,16.97
2018-04-24T19:47:39.095Z,16.10
2018-04-24T19:50:19.602Z,13.90
2018-04-24T19:52:48.901Z,17.10
2018-04-24T19:55:23.220Z,17.23
2018-04-24T19:57:52.557Z,14.50
2018-04-24T20:00:22.608Z,16.23
2018-04-24T20:02:51.413Z,15.77
2018-04-24T20:05:20.754Z,15.33
2018-04-24T20:07:50.181Z,17.07
2018-04-24T20:10:20.693Z,18.57
2018-04-24T20:12:50.351Z,18.13
2018-04-24T20:15:31.976Z,18.93
2018-04-24T20:18:00.560Z,12.83
2018-04-24T20:20:30.308Z,12.63
2018-04-24T20:22:59.893Z,23.57
2018-04-24T20:25:28.481Z,15.23
2018-04-24T20:27:57.485Z,15.63
2018-04-24T20:30:29.885Z,16.80
2018-04-24T20:32:59.925Z,22.23
2018-04-24T20:35:31.318Z,16.47
2018-04-24T20:38:01.021Z,17.43
2018-04-24T20:40:33.329Z,19.33
2018-04-24T20:43:03.859Z,17.33
2018-04-24T20:45:36.112Z,19.93
2018-04-24T20:48:05.830Z,16.73
2018-04-24T20:50:47.493Z,14.10
2018-04-24T20:53:16.096Z,18.17
2018-04-24T20:55:45.414Z,17.47
2018-04-24T20:58:14.233Z,18.57
2018-04-24T21:00:44.222Z,15.73
2018-04-24T21:03:12.688Z,16.50
2018-04-24T21:05:54.022Z,26.07
2018-04-24T21:08:23.321Z,17.33
2018-04-24T21:10:52.643Z,15.87
2018-04-24T21:13:21.644Z,20.87
2018-04-24T21:15:50.290Z,17.23
2018-04-24T21:18:19.741Z,17.10
2018-04-24T21:20:52.641Z,15.90
2018-04-24T21:23:21.203Z,16.67
2018-04-24T21:25:54.238Z,17.93
2018-04-24T21:28:23.905Z,16.50
2018-04-24T21:31:05.769Z,13.77
2018-04-24T21:33:35.417Z,12.70
2018-04-24T21:36:04.752Z,12.70
2018-04-24T21:38:34.272Z,10.37
2018-04-24T21:41:03.188Z,6.03
2018-04-24T21:43:32.461Z,5.83
2018-04-24T21:46:05.265Z,12.20
2018-04-24T21:48:33.817Z,7.30
2018-04-24T21:51:08.089Z,8.43
2018-04-24T21:53:38.001Z,7.53
2018-04-24T21:56:20.468Z,6.53
2018-04-24T21:58:50.683Z,7.80
2018-04-24T22:01:19.725Z,8.23
2018-04-24T22:03:49.064Z,6.23
2018-04-24T22:06:18.948Z,7.80
2018-04-24T22:08:47.493Z,11.20
2018-04-24T22:11:17.334Z,12.27
2018-04-24T22:13:46.109Z,10.10
2018-04-24T22:16:19.453Z,12.30
2018-04-24T22:18:48.167Z,10.10
2018-04-24T22:21:22.150Z,12.63
2018-04-24T22:23:51.246Z,6.57
2018-04-24T22:26:24.032Z,7.30
2018-04-24T22:28:53.350Z,7.77
2018-04-24T22:31:26.414Z,6.63
2018-04-24T22:33:55.205Z,10.03
2018-04-24T22:36:28.425Z,8.37
2018-04-24T22:38:57.692Z,8.63
2018-04-24T22:41:29.888Z,9.23
2018-04-24T22:43:58.820Z,9.27
2018-04-24T22:46:31.628Z,8.83
2018-04-24T22:49:00.945Z,8.83
2018-04-24T22:51:33.820Z,7.97
2018-04-24T22:54:03.045Z,8.23
2018-04-24T22:56:36.455Z,7.03
2018-04-24T22:59:05.094Z,7.20
2018-04-24T23:01:39.003Z,11.03
2018-04-24T23:04:08.033Z,7.07
2018-04-24T23:06:41.333Z,9.10
2018-04-24T23:09:09.841Z,11.33
2018-04-24T23:11:49.701Z,9.03
2018-04-24T23:14:30.529Z,8.80
2018-04-24T23:17:10.309Z,7.07
2018-04-24T23:19:51.933Z,5.03
2018-04-24T23:22:21.311Z,8.47
2018-04-24T23:24:51.313Z,7.37
2018-04-24T23:27:20.026Z,6.20
2018-04-24T23:29:51.985Z,7.77
2018-04-24T23:32:21.562Z,5.27
2018-04-24T23:34:54.637Z,5.10
2018-04-24T23:37:23.449Z,9.47
2018-04-24T23:40:05.518Z,8.00
2018-04-24T23:42:35.692Z,4.37
2018-04-24T23:45:05.321Z,8.67
2018-04-24T23:47:34.085Z,5.80
2018-04-24T23:50:03.704Z,7.97
2018-04-24T23:52:33.040Z,4.73
2018-04-24T23:55:03.871Z,8.03
2018-04-24T23:57:33.035Z,6.40
